Time;durP1;ratioP1;P1;durP2;ratioP2;P2;SDS_P1;SDS_P2;PMS_P1;PMS_P2;Temp;Humidity;BMP_temperature;BMP_pressure;BME280_temperature;BME280_humidity;BME280_pressure;Samples;Min_cycle;Max_cycle;Signal;HPM_P1;HPM_P2
2023/11/14 00:01:17;;;;;;;10.00;2.53;;;9.80;99.90;;;;;;5084946;28;20289;-68
2023/11/14 00:03:43;;;;;;;7.83;2.60;;;9.80;99.90;;;;;;5085450;28;20871;-68
2023/11/14 00:06:10;;;;;;;8.97;2.83;;;9.90;99.90;;;;;;5089044;28;20321;-68
2023/11/14 00:08:37;;;;;;;10.63;2.90;;;9.90;99.90;;;;;;5086679;28;20330;-68
2023/11/14 00:11:06;;;;;;;10.40;2.23;;;9.90;99.90;;;;;;5099525;28;20290;-68
2023/11/14 00:13:33;;;;;;;8.73;3.03;;;9.90;99.90;;;;;;5101528;28;20363;-67
2023/11/14 00:16:00;;;;;;;9.17;2.93;;;9.90;99.90;;;;;;5085727;28;20722;-67
2023/11/14 00:18:27;;;;;;;13.20;2.80;;;9.90;99.90;;;;;;5086008;28;20264;-67
2023/11/14 00:20:55;;;;;;;8.27;2.50;;;9.90;99.90;;;;;;5086206;28;20251;-67
2023/11/14 00:23:22;;;;;;;11.63;2.80;;;9.80;99.90;;;;;;5086241;28;20207;-67
2023/11/14 00:25:49;;;;;;;15.53;2.90;;;9.80;99.90;;;;;;5086470;28;20215;-67
2023/11/14 00:28:17;;;;;;;9.80;2.60;;;9.70;99.90;;;;;;5086033;28;20210;-67
2023/11/14 00:30:44;;;;;;;8.47;2.70;;;9.70;99.90;;;;;;5086056;28;20206;-67
2023/11/14 00:33:11;;;;;;;13.17;3.00;;;9.70;99.90;;;;;;5086091;28;20211;-67
2023/11/14 00:35:38;;;;;;;10.87;2.90;;;9.60;99.90;;;;;;5086523;28;20293;-67
2023/11/14 00:38:05;;;;;;;9.70;3.00;;;9.60;99.90;;;;;;5085977;28;20652;-67
2023/11/14 00:40:32;;;;;;;10.43;2.40;;;9.50;99.90;;;;;;5091003;28;20283;-66
2023/11/14 00:42:59;;;;;;;11.60;2.53;;;9.60;99.90;;;;;;5085616;28;20298;-66
2023/11/14 00:45:28;;;;;;;10.83;2.70;;;9.60;99.90;;;;;;5085268;28;20297;-66
2023/11/14 00:47:55;;;;;;;13.20;2.67;;;9.60;99.90;;;;;;5085620;28;20230;-66
2023/11/14 00:50:23;;;;;;;8.73;2.53;;;9.60;99.90;;;;;;5098262;28;20266;-66
2023/11/14 00:52:50;;;;;;;15.43;3.27;;;9.50;99.90;;;;;;5096733;28;20692;-69
2023/11/14 00:55:17;;;;;;;12.20;2.90;;;9.50;99.90;;;;;;5085140;28;20665;-67
2023/11/14 00:57:44;;;;;;;10.17;3.00;;;9.50;99.90;;;;;;5085772;28;20334;-66
2023/11/14 01:00:12;;;;;;;5.90;2.23;;;9.50;99.90;;;;;;5085848;28;20218;-66
2023/11/14 01:02:41;;;;;;;8.63;2.73;;;9.50;99.90;;;;;;5085426;28;20209;-67
2023/11/14 01:05:09;;;;;;;8.53;2.80;;;9.40;99.90;;;;;;5085605;28;20226;-67
2023/11/14 01:07:36;;;;;;;10.50;3.37;;;9.40;99.90;;;;;;5085433;28;20250;-67
2023/11/14 01:10:04;;;;;;;8.60;2.70;;;9.40;99.90;;;;;;5085636;28;20207;-67
2023/11/14 01:12:31;;;;;;;14.50;2.70;;;9.40;99.90;;;;;;5084626;28;20198;-67
2023/11/14 01:14:59;;;;;;;11.57;2.60;;;9.30;99.90;;;;;;5084888;28;20199;-66
2023/11/14 01:17:26;;;;;;;13.63;3.00;;;9.30;99.90;;;;;;5085177;28;20234;-66
2023/11/14 01:19:54;;;;;;;12.83;2.80;;;9.30;99.90;;;;;;5085065;28;20644;-67
2023/11/14 01:22:21;;;;;;;10.73;2.70;;;9.30;99.90;;;;;;5085225;28;20230;-66
2023/11/14 01:24:48;;;;;;;8.27;2.40;;;9.30;99.90;;;;;;5084999;28;20268;-66
2023/11/14 01:27:15;;;;;;;12.67;3.03;;;9.30;99.90;;;;;;5085163;28;20690;-66
2023/11/14 01:29:45;;;;;;;12.67;2.87;;;9.30;99.90;;;;;;5085120;28;20318;-66
2023/11/14 01:32:12;;;;;;;9.97;2.37;;;9.30;99.90;;;;;;5084561;28;20293;-67
2023/11/14 01:34:39;;;;;;;9.43;2.87;;;9.30;99.90;;;;;;5085019;28;20292;-67
2023/11/14 01:37:07;;;;;;;9.17;3.07;;;9.30;99.90;;;;;;5084820;28;20843;-66
2023/11/14 01:39:34;;;;;;;6.80;2.57;;;9.30;99.90;;;;;;5084722;28;20246;-66
2023/11/14 01:42:01;;;;;;;9.43;2.77;;;9.30;99.90;;;;;;5084473;28;20299;-67
2023/11/14 01:44:30;;;;;;;8.60;3.07;;;9.40;99.90;;;;;;5084193;28;20203;-66
2023/11/14 01:46:57;;;;;;;13.47;3.03;;;9.30;99.90;;;;;;5084633;28;20231;-66
2023/11/14 01:49:25;;;;;;;8.83;3.13;;;9.30;99.90;;;;;;5089091;28;20318;-66
2023/11/14 01:51:52;;;;;;;13.50;2.60;;;9.30;99.90;;;;;;5104840;28;20213;-66
2023/11/14 01:54:20;;;;;;;14.67;3.33;;;9.30;99.90;;;;;;5098541;28;20286;-66
2023/11/14 01:56:47;;;;;;;12.90;3.13;;;9.30;99.90;;;;;;5084689;28;20297;-66
2023/11/14 01:59:14;;;;;;;6.43;2.57;;;9.30;99.90;;;;;;5085157;28;20206;-67
2023/11/14 02:01:42;;;;;;;12.37;3.77;;;9.20;99.90;;;;;;5085039;28;20206;-66
2023/11/14 02:04:12;;;;;;;10.10;3.10;;;9.20;99.90;;;;;;5084816;28;20568;-66
2023/11/14 02:06:39;;;;;;;12.13;2.53;;;9.20;99.90;;;;;;5084528;28;20604;-66
2023/11/14 02:09:07;;;;;;;12.90;3.77;;;9.20;99.90;;;;;;5085372;28;20306;-65
2023/11/14 02:11:36;;;;;;;11.83;2.90;;;9.30;99.90;;;;;;5084626;28;20888;-66
2023/11/14 02:14:04;;;;;;;4.80;2.67;;;9.30;99.90;;;;;;5084575;28;20209;-65
2023/11/14 02:16:45;;;;;;;7.90;2.47;;;9.40;99.90;;;;;;5084680;28;20218;-66
2023/11/14 02:19:12;;;;;;;11.27;3.00;;;9.40;99.90;;;;;;5085073;28;20752;-66
2023/11/14 02:21:39;;;;;;;12.53;3.17;;;9.40;99.90;;;;;;5084593;28;20662;-66
2023/11/14 02:24:09;;;;;;;10.50;3.03;;;9.50;99.90;;;;;;5085870;28;20672;-66
2023/11/14 02:26:38;;;;;;;14.90;3.40;;;9.50;99.90;;;;;;5088838;28;20747;-67
2023/11/14 02:29:05;;;;;;;12.13;3.47;;;9.50;99.90;;;;;;5088974;28;20209;-66
2023/11/14 02:31:32;;;;;;;13.87;3.23;;;9.60;99.90;;;;;;5088689;28;20203;-66
2023/11/14 02:34:00;;;;;;;8.53;3.17;;;9.60;99.90;;;;;;5088898;28;20234;-66
2023/11/14 02:36:30;;;;;;;12.27;3.70;;;9.60;99.90;;;;;;5088566;28;20206;-67
2023/11/14 02:38:57;;;;;;;9.97;3.10;;;9.50;99.90;;;;;;5088739;28;20285;-66
2023/11/14 02:41:24;;;;;;;10.83;3.33;;;9.60;99.90;;;;;;5088621;28;20234;-67
2023/11/14 02:43:52;;;;;;;8.93;2.87;;;9.60;99.90;;;;;;5088393;28;20572;-66
2023/11/14 02:46:19;;;;;;;9.53;3.60;;;9.60;99.90;;;;;;5088130;28;20261;-66
2023/11/14 02:48:46;;;;;;;10.77;3.57;;;9.60;99.90;;;;;;5088204;28;20209;-67
2023/11/14 02:51:13;;;;;;;11.10;2.90;;;9.70;99.90;;;;;;5108060;28;20241;-67
2023/11/14 02:53:40;;;;;;;8.27;2.50;;;9.70;99.90;;;;;;5106007;28;20210;-66
2023/11/14 02:56:07;;;;;;;8.87;3.10;;;9.80;99.90;;;;;;5088085;28;20206;-67
2023/11/14 02:58:34;;;;;;;9.83;3.00;;;9.80;99.90;;;;;;5088309;28;20272;-66
2023/11/14 03:01:03;;;;;;;10.77;2.80;;;9.80;99.90;;;;;;5088493;28;20211;-67
2023/11/14 03:03:30;;;;;;;12.13;3.23;;;9.90;99.90;;;;;;5088591;28;20238;-66
2023/11/14 03:05:59;;;;;;;14.37;3.33;;;9.90;99.90;;;;;;5088129;28;20306;-66
2023/11/14 03:08:26;;;;;;;15.30;3.57;;;9.90;99.90;;;;;;5087832;28;20250;-66
2023/11/14 03:10:55;;;;;;;9.97;3.00;;;10.00;99.90;;;;;;5088474;28;20892;-67
2023/11/14 03:13:22;;;;;;;7.97;2.93;;;10.00;99.90;;;;;;5087708;28;20296;-67
2023/11/14 03:15:49;;;;;;;14.80;3.30;;;10.10;99.90;;;;;;5087937;28;20280;-67
2023/11/14 03:18:17;;;;;;;10.90;3.10;;;10.00;99.90;;;;;;5087643;28;20267;-67
2023/11/14 03:20:44;;;;;;;13.73;3.53;;;10.10;99.90;;;;;;5087620;28;20655;-66
2023/11/14 03:23:11;;;;;;;8.00;3.17;;;10.10;99.90;;;;;;5087626;28;20203;-67
2023/11/14 03:25:38;;;;;;;9.60;3.10;;;10.10;99.90;;;;;;5087919;28;20206;-67
2023/11/14 03:28:05;;;;;;;8.33;2.67;;;10.10;99.90;;;;;;5086912;28;20235;-67
2023/11/14 03:30:32;;;;;;;6.23;2.70;;;10.10;99.90;;;;;;5087095;28;20210;-68
2023/11/14 03:33:00;;;;;;;10.10;2.80;;;10.20;99.90;;;;;;5087396;28;20227;-67
2023/11/14 03:35:28;;;;;;;8.10;3.30;;;10.20;99.90;;;;;;5086629;28;20199;-67
2023/11/14 03:37:55;;;;;;;11.83;2.87;;;10.20;99.90;;;;;;5075837;28;20977;-67
2023/11/14 03:40:23;;;;;;;7.60;2.97;;;10.20;99.90;;;;;;5082970;28;20216;-67
2023/11/14 03:42:49;;;;;;;12.17;3.10;;;10.20;99.90;;;;;;5085732;28;20206;-67
2023/11/14 03:45:17;;;;;;;11.17;3.20;;;10.20;99.90;;;;;;5085236;28;20717;-67
2023/11/14 03:47:43;;;;;;;7.53;2.43;;;10.20;99.90;;;;;;5085517;28;20231;-67
2023/11/14 03:50:10;;;;;;;7.77;2.60;;;10.20;99.90;;;;;;5096491;28;20242;-67
2023/11/14 03:52:39;;;;;;;9.97;3.07;;;10.20;99.90;;;;;;5105901;28;20285;-67
2023/11/14 03:55:06;;;;;;;10.13;2.57;;;10.10;99.90;;;;;;5088577;28;20253;-67
2023/11/14 03:57:33;;;;;;;9.50;2.83;;;10.20;99.90;;;;;;5085913;28;20321;-67
2023/11/14 04:00:00;;;;;;;9.50;2.80;;;10.20;99.90;;;;;;5085559;28;20210;-67
2023/11/14 04:02:28;;;;;;;10.93;2.93;;;10.10;99.90;;;;;;5084879;28;20286;-66
2023/11/14 04:04:54;;;;;;;10.07;2.60;;;10.10;99.90;;;;;;5086687;28;20234;-67
2023/11/14 04:07:21;;;;;;;9.57;2.63;;;10.10;99.90;;;;;;5085633;28;20242;-67
2023/11/14 04:09:50;;;;;;;10.47;2.70;;;10.10;99.90;;;;;;5086081;28;20313;-67
2023/11/14 04:12:16;;;;;;;9.37;2.30;;;10.10;99.90;;;;;;5085270;28;20213;-67
2023/11/14 04:14:43;;;;;;;9.43;2.93;;;10.10;99.90;;;;;;5086852;28;20308;-67
2023/11/14 04:17:10;;;;;;;7.80;2.60;;;10.10;99.90;;;;;;5086209;28;20735;-67
2023/11/14 04:19:37;;;;;;;7.97;2.70;;;10.10;99.90;;;;;;5086836;28;20311;-66
2023/11/14 04:22:04;;;;;;;10.53;3.00;;;10.10;99.90;;;;;;5086748;28;20294;-67
2023/11/14 04:24:32;;;;;;;12.47;3.20;;;10.20;99.90;;;;;;5086703;28;20927;-67
2023/11/14 04:27:02;;;;;;;16.90;3.00;;;10.20;99.90;;;;;;5086738;28;20545;-66
2023/11/14 04:29:28;;;;;;;8.93;3.23;;;10.20;99.90;;;;;;5086265;28;20203;-67
2023/11/14 04:31:57;;;;;;;9.40;2.47;;;10.10;99.90;;;;;;5086130;28;20321;-67
2023/11/14 04:34:23;;;;;;;7.60;2.60;;;10.10;99.90;;;;;;5086146;28;20210;-67
2023/11/14 04:36:50;;;;;;;6.97;2.43;;;10.20;99.90;;;;;;5066000;28;20209;-66
2023/11/14 04:39:17;;;;;;;8.13;2.53;;;10.20;99.90;;;;;;5074643;28;20206;-67
2023/11/14 04:41:44;;;;;;;13.73;2.97;;;10.20;99.90;;;;;;5085946;28;20736;-66
2023/11/14 04:44:13;;;;;;;9.80;2.60;;;10.20;99.90;;;;;;5085905;28;20237;-67
2023/11/14 04:46:43;;;;;;;9.27;2.40;;;10.20;99.90;;;;;;5085014;28;20297;-66
2023/11/14 04:49:10;;;;;;;10.07;2.37;;;10.20;99.90;;;;;;5088838;28;20234;-66
2023/11/14 04:51:37;;;;;;;9.20;2.80;;;10.20;99.90;;;;;;5106338;28;20206;-66
2023/11/14 04:54:04;;;;;;;11.73;2.67;;;10.30;99.90;;;;;;5106431;28;20297;-66
2023/11/14 04:56:31;;;;;;;11.27;3.00;;;10.30;99.90;;;;;;5106581;28;20205;-66
2023/11/14 04:58:58;;;;;;;9.63;3.00;;;10.30;99.90;;;;;;5106651;28;20209;-67
2023/11/14 05:01:26;;;;;;;11.83;2.47;;;10.30;99.90;;;;;;5106365;28;20644;-66
2023/11/14 05:03:53;;;;;;;10.13;2.67;;;10.30;99.90;;;;;;5088111;28;20297;-67
2023/11/14 05:06:20;;;;;;;10.57;2.23;;;10.30;99.90;;;;;;5085973;28;20325;-67
2023/11/14 05:08:47;;;;;;;8.33;2.63;;;10.30;99.90;;;;;;5085901;28;20246;-67
2023/11/14 05:11:14;;;;;;;7.73;2.53;;;10.30;99.90;;;;;;5085830;28;20202;-67
2023/11/14 05:13:41;;;;;;;9.53;2.63;;;10.30;99.90;;;;;;5085983;28;20313;-67
2023/11/14 05:16:10;;;;;;;9.20;2.37;;;10.30;99.90;;;;;;5085461;28;20202;-67
2023/11/14 05:18:38;;;;;;;10.27;2.37;;;10.30;99.90;;;;;;5085241;28;20580;-66
2023/11/14 05:21:05;;;;;;;9.50;2.27;;;10.40;99.90;;;;;;5085283;28;20213;-67
2023/11/14 05:23:32;;;;;;;6.97;2.60;;;10.40;99.90;;;;;;5085438;28;20211;-66
2023/11/14 05:25:59;;;;;;;12.70;2.73;;;10.40;99.90;;;;;;5085390;28;20325;-67
2023/11/14 05:28:26;;;;;;;6.47;2.37;;;10.50;99.90;;;;;;5085067;28;20241;-67
2023/11/14 05:30:53;;;;;;;8.17;2.30;;;10.50;99.90;;;;;;5085249;28;20207;-67
2023/11/14 05:33:20;;;;;;;7.00;2.50;;;10.50;99.90;;;;;;5084982;28;20217;-66
2023/11/14 05:35:48;;;;;;;9.67;2.43;;;10.50;99.90;;;;;;5084899;28;20295;-67
2023/11/14 05:38:15;;;;;;;13.10;2.27;;;10.50;99.90;;;;;;5085387;28;20248;-67
2023/11/14 05:40:42;;;;;;;12.80;2.50;;;10.50;99.90;;;;;;5085269;28;20893;-67
2023/11/14 05:43:09;;;;;;;6.33;2.30;;;10.60;99.90;;;;;;5084987;28;20664;-67
2023/11/14 05:45:36;;;;;;;7.37;2.40;;;10.60;99.90;;;;;;5085108;28;20249;-67
2023/11/14 05:48:04;;;;;;;8.27;2.70;;;10.60;99.90;;;;;;5085481;28;20320;-66
2023/11/14 05:50:31;;;;;;;7.17;2.30;;;10.60;99.90;;;;;;5085139;28;20215;-67
2023/11/14 05:52:59;;;;;;;5.87;2.07;;;10.60;99.90;;;;;;5085266;28;20298;-67
2023/11/14 05:55:26;;;;;;;5.73;2.20;;;10.60;99.90;;;;;;5084699;28;20211;-67
2023/11/14 05:57:53;;;;;;;7.73;2.33;;;10.70;99.90;;;;;;5084947;28;20245;-67
2023/11/14 06:00:20;;;;;;;10.50;3.20;;;10.70;99.90;;;;;;5084504;28;20291;-66
2023/11/14 06:02:47;;;;;;;6.53;2.93;;;10.70;99.90;;;;;;5083723;28;20294;-67
2023/11/14 06:05:14;;;;;;;9.37;2.20;;;10.70;99.90;;;;;;5084715;28;20661;-67
2023/11/14 06:07:41;;;;;;;10.73;2.60;;;10.80;99.90;;;;;;5084742;28;20596;-67
2023/11/14 06:10:10;;;;;;;10.90;2.57;;;10.80;99.90;;;;;;5084951;28;20306;-66
2023/11/14 06:12:39;;;;;;;10.03;2.73;;;10.80;99.90;;;;;;5084864;28;20217;-67
2023/11/14 06:15:08;;;;;;;7.80;2.40;;;10.80;99.90;;;;;;5085030;28;20701;-67
2023/11/14 06:17:35;;;;;;;9.80;2.87;;;10.80;99.90;;;;;;5076379;28;20208;-66
2023/11/14 06:20:02;;;;;;;10.17;2.83;;;10.80;99.90;;;;;;5074468;28;20210;-66
2023/11/14 06:22:29;;;;;;;8.90;2.60;;;10.80;99.90;;;;;;5084785;28;20206;-67
2023/11/14 06:24:56;;;;;;;5.77;2.07;;;10.80;99.90;;;;;;5085079;28;20675;-66
2023/11/14 06:27:24;;;;;;;10.20;2.53;;;10.80;99.90;;;;;;5084426;28;20198;-67
2023/11/14 06:29:51;;;;;;;10.80;2.93;;;10.80;99.90;;;;;;5084519;28;20265;-67
2023/11/14 06:32:18;;;;;;;8.07;2.40;;;10.80;99.90;;;;;;5084147;28;20195;-66
2023/11/14 06:34:45;;;;;;;8.97;2.30;;;10.80;99.90;;;;;;5064223;28;20326;-67
2023/11/14 06:37:12;;;;;;;10.87;2.20;;;10.80;99.90;;;;;;5064055;28;20264;-66
2023/11/14 06:39:40;;;;;;;7.00;2.30;;;10.80;99.90;;;;;;5075624;28;20311;-67
2023/11/14 06:42:07;;;;;;;11.30;2.33;;;10.90;99.90;;;;;;5084453;28;20318;-67
2023/11/14 06:44:36;;;;;;;7.60;2.20;;;10.80;99.90;;;;;;5084876;28;20785;-66
2023/11/14 06:47:03;;;;;;;6.00;2.47;;;10.90;99.90;;;;;;5084691;28;20211;-67
2023/11/14 06:49:30;;;;;;;10.07;2.60;;;10.90;99.90;;;;;;5090307;28;20325;-67
2023/11/14 06:51:57;;;;;;;7.30;2.20;;;10.90;99.90;;;;;;5104879;28;20319;-67
2023/11/14 06:54:24;;;;;;;4.63;2.10;;;10.90;99.90;;;;;;5103183;28;20252;-66
2023/11/14 06:56:51;;;;;;;9.50;2.60;;;10.90;99.90;;;;;;5084802;28;20202;-67
2023/11/14 06:59:18;;;;;;;8.73;2.33;;;10.90;99.90;;;;;;5084189;28;20211;-67
2023/11/14 07:01:52;;;;;;;7.13;2.23;;;11.00;99.90;;;;;;5084177;28;20661;-66
2023/11/14 07:04:19;;;;;;;10.17;2.60;;;11.00;99.90;;;;;;5084556;28;20191;-66
2023/11/14 07:06:46;;;;;;;9.13;2.40;;;10.90;99.90;;;;;;5084109;28;20675;-66
2023/11/14 07:09:15;;;;;;;13.13;2.70;;;11.00;99.90;;;;;;5084244;28;20591;-67
2023/11/14 07:11:42;;;;;;;10.60;2.70;;;11.00;99.90;;;;;;5087960;28;20268;-67
2023/11/14 07:14:09;;;;;;;4.97;2.33;;;11.00;99.90;;;;;;5087996;28;20249;-66
2023/11/14 07:16:36;;;;;;;7.17;2.40;;;11.00;99.90;;;;;;5088327;28;20210;-66
2023/11/14 07:19:05;;;;;;;7.03;2.40;;;11.00;99.90;;;;;;5088274;28;20238;-67
2023/11/14 07:21:32;;;;;;;8.73;2.53;;;11.00;99.90;;;;;;5087539;28;20747;-66
2023/11/14 07:23:59;;;;;;;9.63;2.63;;;11.10;99.90;;;;;;5087872;28;20211;-66
2023/11/14 07:26:26;;;;;;;8.87;2.50;;;11.00;99.90;;;;;;5087240;28;20301;-66
2023/11/14 07:28:54;;;;;;;7.03;2.23;;;11.10;99.90;;;;;;5087132;28;20226;-66
2023/11/14 07:31:20;;;;;;;12.80;2.80;;;11.10;99.90;;;;;;5087366;28;20235;-66
2023/11/14 07:33:47;;;;;;;6.33;2.20;;;11.00;99.90;;;;;;5087843;28;20249;-66
2023/11/14 07:36:16;;;;;;;8.20;2.00;;;11.10;99.90;;;;;;5087111;28;20202;-67
2023/11/14 07:38:44;;;;;;;6.93;2.33;;;11.10;99.90;;;;;;5087582;28;20769;-66
2023/11/14 07:41:11;;;;;;;10.30;2.43;;;11.20;99.90;;;;;;5087484;28;20199;-67
2023/11/14 07:43:38;;;;;;;8.03;2.20;;;11.20;99.90;;;;;;5087112;28;20202;-66
2023/11/14 07:46:07;;;;;;;6.73;2.53;;;11.20;99.90;;;;;;5087171;28;20272;-66
2023/11/14 07:48:34;;;;;;;8.47;2.50;;;11.20;99.90;;;;;;5087697;28;20242;-67
2023/11/14 07:51:00;;;;;;;11.53;2.53;;;11.30;99.90;;;;;;5100908;28;20213;-67
2023/11/14 07:53:29;;;;;;;7.30;2.53;;;11.30;99.90;;;;;;5087530;28;20351;-67
2023/11/14 07:55:56;;;;;;;7.67;2.33;;;11.30;99.90;;;;;;5087273;28;20301;-66
2023/11/14 07:58:25;;;;;;;8.87;2.33;;;11.40;99.90;;;;;;5087188;28;20608;-66
2023/11/14 08:00:51;;;;;;;10.63;2.60;;;11.30;99.90;;;;;;5086941;28;20211;-67
2023/11/14 08:03:18;;;;;;;7.77;2.60;;;11.40;99.90;;;;;;5087043;28;20284;-66
2023/11/14 08:05:45;;;;;;;11.73;2.80;;;11.40;99.90;;;;;;5086760;28;20232;-66
2023/11/14 08:08:13;;;;;;;7.73;2.40;;;11.40;99.90;;;;;;5086433;28;20239;-67
2023/11/14 08:10:42;;;;;;;6.83;1.90;;;11.40;99.90;;;;;;5086954;28;20260;-66
2023/11/14 08:13:09;;;;;;;8.83;2.10;;;11.40;99.90;;;;;;5086907;28;20217;-66
2023/11/14 08:15:37;;;;;;;6.87;2.80;;;11.50;99.90;;;;;;5086881;28;20214;-66
2023/11/14 08:18:06;;;;;;;6.50;1.93;;;11.50;99.90;;;;;;5086821;28;20222;-67
2023/11/14 08:20:32;;;;;;;8.10;2.50;;;11.50;99.90;;;;;;5100586;28;20296;-67
2023/11/14 08:23:00;;;;;;;8.27;1.97;;;11.60;99.90;;;;;;5104412;28;20210;-66
2023/11/14 08:25:27;;;;;;;9.77;2.47;;;11.60;99.90;;;;;;5086500;28;20484;-67
2023/11/14 08:27:56;;;;;;;7.30;2.17;;;11.60;99.90;;;;;;5086325;28;20298;-66
2023/11/14 08:30:27;;;;;;;11.90;2.70;;;11.60;99.90;;;;;;5086128;28;20226;-67
2023/11/14 08:32:54;;;;;;;7.17;2.20;;;11.60;99.90;;;;;;5086264;28;20195;-67
2023/11/14 08:35:24;;;;;;;10.50;2.37;;;11.60;99.90;;;;;;5086218;28;20245;-66
2023/11/14 08:37:52;;;;;;;10.63;2.57;;;11.70;99.90;;;;;;5086316;28;20585;-66
2023/11/14 08:40:19;;;;;;;6.10;2.13;;;11.70;99.90;;;;;;5085738;28;20210;-67
2023/11/14 08:42:49;;;;;;;6.43;2.30;;;11.70;99.90;;;;;;5086330;28;20302;-67
2023/11/14 08:45:17;;;;;;;9.27;2.13;;;11.80;99.90;;;;;;5086474;28;20252;-67
2023/11/14 08:47:44;;;;;;;7.73;2.60;;;11.90;99.90;;;;;;5086273;28;20209;-66
2023/11/14 08:50:12;;;;;;;8.30;2.23;;;11.90;99.90;;;;;;5085941;28;20734;-66
2023/11/14 08:52:41;;;;;;;9.13;2.10;;;12.00;99.90;;;;;;5086159;28;20268;-67
2023/11/14 08:55:08;;;;;;;12.73;2.90;;;12.00;99.90;;;;;;5086135;28;20718;-67
2023/11/14 08:57:35;;;;;;;9.23;2.50;;;12.00;99.90;;;;;;5085956;28;20735;-66
2023/11/14 09:00:03;;;;;;;10.13;2.40;;;12.00;99.90;;;;;;5086090;28;20286;-67
2023/11/14 09:02:30;;;;;;;8.57;2.20;;;12.10;99.90;;;;;;5085538;28;20396;-66
2023/11/14 09:04:57;;;;;;;9.30;2.50;;;12.10;99.90;;;;;;5085768;28;20712;-67
2023/11/14 09:07:24;;;;;;;9.30;2.47;;;12.10;99.90;;;;;;5085027;28;20823;-67
2023/11/14 09:09:51;;;;;;;6.33;2.40;;;12.10;99.90;;;;;;5085665;28;20342;-66
2023/11/14 09:12:19;;;;;;;8.17;2.40;;;12.10;99.90;;;;;;5085122;28;20665;-67
2023/11/14 09:14:46;;;;;;;10.70;2.60;;;12.10;99.90;;;;;;5086083;28;20209;-66
2023/11/14 09:17:13;;;;;;;9.67;2.50;;;12.10;99.90;;;;;;5085868;28;20206;-66
2023/11/14 09:19:42;;;;;;;8.00;2.13;;;12.10;99.90;;;;;;5093006;28;20245;-67
2023/11/14 09:22:08;;;;;;;8.70;2.20;;;12.10;99.90;;;;;;5097050;28;20289;-66
2023/11/14 09:24:35;;;;;;;11.57;2.87;;;12.10;99.90;;;;;;5085597;28;20295;-67
2023/11/14 09:27:03;;;;;;;6.40;2.50;;;12.20;99.90;;;;;;5085669;28;20214;-67
2023/11/14 09:29:30;;;;;;;7.10;2.37;;;12.20;99.90;;;;;;5085042;28;20590;-66
2023/11/14 09:31:57;;;;;;;8.70;2.20;;;12.10;99.90;;;;;;5084955;28;20322;-66
2023/11/14 09:34:24;;;;;;;6.77;2.60;;;12.10;99.90;;;;;;5084998;28;20230;-67
2023/11/14 09:36:53;;;;;;;4.90;2.20;;;12.10;99.90;;;;;;5085076;28;20285;-66
2023/11/14 09:39:20;;;;;;;7.53;2.47;;;12.20;99.90;;;;;;5084812;28;20213;-66
2023/11/14 09:41:47;;;;;;;8.80;2.87;;;12.20;99.90;;;;;;5085227;28;20246;-66
2023/11/14 09:44:14;;;;;;;8.00;2.30;;;12.30;99.90;;;;;;5084835;28;20242;-68
2023/11/14 09:46:42;;;;;;;8.10;2.53;;;12.30;99.90;;;;;;5084749;28;20211;-64
2023/11/14 09:49:09;;;;;;;9.47;2.67;;;12.40;99.90;;;;;;5084622;28;20234;-65
2023/11/14 09:51:38;;;;;;;9.20;2.77;;;12.50;99.90;;;;;;5084723;28;20640;-66
2023/11/14 09:54:07;;;;;;;8.63;2.80;;;12.60;99.90;;;;;;5085065;28;20239;-66
2023/11/14 09:56:34;;;;;;;11.37;2.57;;;12.60;99.90;;;;;;5085273;28;20321;-66
2023/11/14 09:59:02;;;;;;;7.80;2.30;;;12.70;99.90;;;;;;5085078;28;20681;-66
2023/11/14 10:01:29;;;;;;;5.60;2.37;;;12.80;99.90;;;;;;5084355;28;20292;-66
2023/11/14 10:03:56;;;;;;;5.40;2.27;;;12.80;99.90;;;;;;5084630;28;20702;-66
2023/11/14 10:06:23;;;;;;;6.97;2.50;;;12.80;99.90;;;;;;5084821;28;20211;-66
2023/11/14 10:08:50;;;;;;;6.83;2.50;;;12.80;99.90;;;;;;5084510;28;20329;-66
2023/11/14 10:11:19;;;;;;;7.30;2.70;;;12.80;99.90;;;;;;5084799;28;20227;-67
2023/11/14 10:13:47;;;;;;;9.13;2.70;;;12.80;99.90;;;;;;5084690;28;20297;-66
2023/11/14 10:16:19;;;;;;;12.93;2.90;;;12.70;99.90;;;;;;5084455;28;20203;-66
2023/11/14 10:18:47;;;;;;;9.80;2.60;;;12.70;99.90;;;;;;5084783;28;20217;-66
2023/11/14 10:21:25;;;;;;;7.23;2.60;;;12.70;99.90;;;;;;5104373;28;20237;-67
2023/11/14 10:23:53;;;;;;;8.37;2.90;;;12.70;99.90;;;;;;5099050;28;20205;-66
2023/11/14 10:26:22;;;;;;;11.93;3.30;;;12.80;99.90;;;;;;5084673;28;20234;-66
2023/11/14 10:28:54;;;;;;;8.93;2.63;;;12.80;99.90;;;;;;5084709;28;20650;-67
2023/11/14 10:31:35;;;;;;;7.77;2.40;;;12.90;99.90;;;;;;5084414;28;20211;-67
2023/11/14 10:34:02;;;;;;;7.10;2.50;;;12.90;99.90;;;;;;5085189;28;20210;-66
2023/11/14 10:36:29;;;;;;;11.73;3.37;;;13.00;99.90;;;;;;5085010;28;20253;-66
2023/11/14 10:39:04;;;;;;;8.13;2.77;;;13.00;99.90;;;;;;5084958;28;20278;-66
2023/11/14 10:41:33;;;;;;;7.43;2.93;;;13.10;99.90;;;;;;5084611;28;20198;-67
2023/11/14 10:44:07;;;;;;;11.10;2.47;;;13.20;99.90;;;;;;5084570;28;20217;-66
2023/11/14 10:46:35;;;;;;;8.00;2.47;;;13.30;99.90;;;;;;5088507;28;20306;-66
2023/11/14 10:49:03;;;;;;;10.70;3.70;;;13.30;99.90;;;;;;5089872;28;20242;-66
2023/11/14 10:51:33;;;;;;;10.40;3.33;;;13.30;99.90;;;;;;5108637;28;20211;-66
2023/11/14 10:54:03;;;;;;;8.57;2.80;;;13.20;99.90;;;;;;5108751;28;20667;-66
2023/11/14 10:56:32;;;;;;;7.60;2.63;;;13.20;99.90;;;;;;5108678;28;20613;-66
2023/11/14 10:59:00;;;;;;;10.63;3.03;;;13.20;99.90;;;;;;5099355;28;20218;-66
2023/11/14 11:01:28;;;;;;;11.63;3.03;;;13.20;99.90;;;;;;5087728;28;20294;-66
2023/11/14 11:03:55;;;;;;;8.73;2.87;;;13.20;99.90;;;;;;5087837;28;20588;-66
2023/11/14 11:06:25;;;;;;;9.50;2.80;;;13.20;99.90;;;;;;5087519;28;20215;-66
2023/11/14 11:08:53;;;;;;;9.50;2.83;;;13.20;99.90;;;;;;5088042;28;20279;-66
2023/11/14 11:11:23;;;;;;;6.53;2.70;;;13.20;99.90;;;;;;5087392;28;20273;-64
2023/11/14 11:13:52;;;;;;;6.37;2.33;;;13.20;99.90;;;;;;5087899;28;20207;-64
2023/11/14 11:16:41;;;;;;;7.77;2.67;;;13.10;99.90;;;;;;5087403;28;20602;-64
2023/11/14 11:19:08;;;;;;;11.67;2.73;;;13.10;99.90;;;;;;5089836;28;20198;-64
2023/11/14 11:21:36;;;;;;;6.97;2.27;;;13.10;99.90;;;;;;5089137;28;20740;-64
2023/11/14 11:24:10;;;;;;;8.87;2.53;;;13.10;99.90;;;;;;5087756;28;20283;-64
2023/11/14 11:27:11;;;;;;;8.67;2.17;;;13.10;99.90;;;;;;5087334;28;20188;-64
2023/11/14 11:29:48;;;;;;;8.40;2.43;;;13.20;99.90;;;;;;5087025;28;20830;-66
2023/11/14 11:32:28;;;;;;;11.23;2.77;;;13.20;99.90;;;;;;5086658;28;20210;-66
2023/11/14 11:35:27;;;;;;;11.03;2.90;;;13.20;99.90;;;;;;5087407;28;20206;-66
2023/11/14 11:37:57;;;;;;;8.57;2.80;;;13.20;99.90;;;;;;5086721;28;20769;-66
2023/11/14 11:40:26;;;;;;;6.33;2.70;;;13.20;99.90;;;;;;5086753;28;20207;-66
2023/11/14 11:42:55;;;;;;;4.20;2.17;;;13.10;99.90;;;;;;5086936;28;20234;-66
2023/11/14 11:45:38;;;;;;;7.47;2.40;;;13.10;99.90;;;;;;5086636;28;20207;-66
2023/11/14 11:48:05;;;;;;;8.60;2.17;;;13.20;99.90;;;;;;5086999;28;20959;-66
2023/11/14 11:50:34;;;;;;;8.60;2.90;;;13.10;99.90;;;;;;5087243;28;20603;-66
2023/11/14 11:53:02;;;;;;;4.63;2.23;;;13.20;99.90;;;;;;5086509;28;21096;-66
2023/11/14 11:55:29;;;;;;;6.53;2.50;;;13.20;99.90;;;;;;5086583;28;20203;-66
2023/11/14 11:58:02;;;;;;;7.50;2.23;;;13.20;99.90;;;;;;5086718;28;20285;-66
2023/11/14 12:00:30;;;;;;;9.20;2.73;;;13.20;99.90;;;;;;5086164;28;20931;-66
2023/11/14 12:02:59;;;;;;;6.27;2.57;;;13.20;99.90;;;;;;5086387;28;20238;-66
2023/11/14 12:05:27;;;;;;;7.97;3.17;;;13.20;99.90;;;;;;5086588;28;20314;-66
2023/11/14 12:07:55;;;;;;;9.00;3.03;;;13.20;99.90;;;;;;5086299;28;20241;-66
2023/11/14 12:10:22;;;;;;;8.67;2.70;;;13.10;99.90;;;;;;5086307;28;20726;-65
2023/11/14 12:12:52;;;;;;;6.40;2.87;;;13.10;99.90;;;;;;5086704;28;20700;-65
2023/11/14 12:15:20;;;;;;;9.73;3.00;;;13.10;99.90;;;;;;5086330;28;20721;-65
2023/11/14 12:17:54;;;;;;;9.40;4.30;;;13.10;99.90;;;;;;5086052;28;20211;-66
2023/11/14 12:20:25;;;;;;;7.70;2.60;;;13.00;99.90;;;;;;5086518;28;20298;-65
2023/11/14 12:22:53;;;;;;;7.00;2.80;;;12.90;99.90;;;;;;5086039;28;20661;-66
2023/11/14 12:25:23;;;;;;;8.37;2.57;;;12.90;99.90;;;;;;5086074;28;20225;-66
2023/11/14 12:27:58;;;;;;;6.63;2.77;;;12.90;99.90;;;;;;5085931;28;20214;-65
2023/11/14 12:30:26;;;;;;;7.60;2.77;;;12.90;99.90;;;;;;5085722;28;20230;-66
2023/11/14 12:33:07;;;;;;;11.50;2.57;;;12.90;99.90;;;;;;5086032;28;20207;-66
2023/11/14 12:35:57;;;;;;;7.97;2.80;;;13.00;99.90;;;;;;5086050;28;20714;-66
2023/11/14 12:38:32;;;;;;;14.67;3.30;;;13.00;99.90;;;;;;5086144;28;20308;-65
2023/11/14 12:41:19;;;;;;;7.13;2.67;;;13.00;99.90;;;;;;5085954;28;20628;-65
2023/11/14 12:43:47;;;;;;;8.23;2.80;;;13.00;99.90;;;;;;5086209;28;20260;-66
2023/11/14 12:46:22;;;;;;;6.83;2.37;;;13.00;99.90;;;;;;5085843;28;20301;-66
2023/11/14 12:49:11;;;;;;;9.33;2.83;;;13.00;99.90;;;;;;5086119;28;20229;-66
2023/11/14 12:51:41;;;;;;;6.07;2.70;;;13.00;99.90;;;;;;5065171;28;20926;-66